createdAt,value
2023-02-08T00:00:11.363Z,35.00
2023-02-08T00:02:40.218Z,32.33
2023-02-08T00:05:09.489Z,33.50
2023-02-08T00:07:38.245Z,34.73
2023-02-08T00:10:08.405Z,34.03
2023-02-08T00:12:37.263Z,34.13
2023-02-08T00:15:08.635Z,33.37
2023-02-08T00:17:42.978Z,34.67
2023-02-08T00:20:13.645Z,32.80
2023-02-08T00:22:42.529Z,31.13
2023-02-08T00:25:11.725Z,34.20
2023-02-08T00:27:40.629Z,30.67
2023-02-08T00:30:12.422Z,31.73
2023-02-08T00:32:41.152Z,33.83
2023-02-08T00:35:10.119Z,31.57
2023-02-08T00:37:38.916Z,33.27
2023-02-08T00:40:08.895Z,31.17
2023-02-08T00:42:37.819Z,33.23
2023-02-08T00:45:07.560Z,31.70
2023-02-08T00:47:37.883Z,29.90
2023-02-08T00:50:08.073Z,31.07
2023-02-08T00:52:38.761Z,31.10
2023-02-08T00:55:09.958Z,29.20
2023-02-08T00:57:38.776Z,34.03
2023-02-08T01:00:09.679Z,33.33
2023-02-08T01:02:41.122Z,31.77
2023-02-08T01:05:10.394Z,33.37
2023-02-08T01:07:39.721Z,31.77
2023-02-08T01:10:13.009Z,27.80
2023-02-08T01:12:44.935Z,31.60
2023-02-08T01:15:13.665Z,28.83
2023-02-08T01:17:44.191Z,31.07
2023-02-08T01:20:13.597Z,31.00
2023-02-08T01:22:42.308Z,35.33
2023-02-08T01:25:11.310Z,30.17
2023-02-08T01:27:40.094Z,31.53
2023-02-08T01:30:10.520Z,31.37
2023-02-08T01:32:42.779Z,30.10
2023-02-08T01:35:11.535Z,32.47
2023-02-08T01:37:40.259Z,34.33
2023-02-08T01:40:10.669Z,29.30
2023-02-08T01:42:39.526Z,32.40
2023-02-08T01:45:29.925Z,29.53
2023-02-08T01:48:13.114Z,30.97
2023-02-08T01:50:53.146Z,30.10
2023-02-08T01:53:23.911Z,31.53
2023-02-08T01:55:58.828Z,31.40
2023-02-08T01:58:33.414Z,30.87
2023-02-08T02:01:03.428Z,28.17
2023-02-08T02:03:35.139Z,27.77
2023-02-08T02:06:12.233Z,31.67
2023-02-08T02:08:49.708Z,28.57
2023-02-08T02:11:19.649Z,30.63
2023-02-08T02:13:51.201Z,30.77
2023-02-08T02:16:20.334Z,30.63
2023-02-08T02:18:50.648Z,29.60
2023-02-08T02:21:51.958Z,30.33
2023-02-08T02:25:13.443Z,30.83
2023-02-08T02:28:06.691Z,32.07
2023-02-08T02:31:22.516Z,32.90
2023-02-08T02:34:06.326Z,29.07
2023-02-08T02:36:51.805Z,29.97
2023-02-08T02:39:32.958Z,28.60
2023-02-08T02:42:32.467Z,46.10
2023-02-08T02:45:12.381Z,32.97
2023-02-08T02:47:53.297Z,28.03
2023-02-08T02:50:32.462Z,29.60
2023-02-08T02:53:09.216Z,30.37
2023-02-08T02:55:47.331Z,27.53
2023-02-08T02:58:19.220Z,26.33
2023-02-08T03:00:55.293Z,32.10
2023-02-08T03:03:28.617Z,29.40
2023-02-08T03:06:04.397Z,32.40
2023-02-08T03:09:26.645Z,29.13
2023-02-08T03:12:09.754Z,32.93
2023-02-08T03:14:53.233Z,33.27
2023-02-08T03:17:40.587Z,33.00
2023-02-08T03:20:13.153Z,28.43
2023-02-08T03:22:55.671Z,31.33
2023-02-08T03:25:34.167Z,29.13
2023-02-08T03:28:13.874Z,28.83
2023-02-08T03:31:04.814Z,29.47
2023-02-08T03:33:44.668Z,27.63
2023-02-08T03:36:25.117Z,31.23
2023-02-08T03:38:57.634Z,25.67
2023-02-08T03:41:34.392Z,27.33
2023-02-08T03:44:10.788Z,29.23
2023-02-08T03:46:45.668Z,27.17
2023-02-08T03:49:21.898Z,26.50
2023-02-08T03:51:52.404Z,24.13
2023-02-08T03:54:27.426Z,29.73
2023-02-08T03:57:08.168Z,25.33
2023-02-08T03:59:44.447Z,28.07
2023-02-08T04:02:20.157Z,28.47
2023-02-08T04:04:53.375Z,25.57
2023-02-08T04:07:22.566Z,29.20
2023-02-08T04:09:52.702Z,28.67
2023-02-08T04:12:22.659Z,25.10
2023-02-08T04:14:51.373Z,26.60
2023-02-08T04:17:20.198Z,27.80
2023-02-08T04:19:48.945Z,24.37
2023-02-08T04:22:17.656Z,26.13
2023-02-08T04:24:46.510Z,28.50
2023-02-08T04:27:17.057Z,27.30
2023-02-08T04:29:45.860Z,29.33
2023-02-08T04:32:14.805Z,26.87
2023-02-08T04:34:43.707Z,26.97
2023-02-08T04:37:12.737Z,25.10
2023-02-08T04:39:41.355Z,27.60
2023-02-08T04:42:10.531Z,33.03
2023-02-08T04:44:40.914Z,40.87
2023-02-08T04:47:10.148Z,39.13
2023-02-08T04:49:39.619Z,36.77
2023-02-08T04:52:11.550Z,31.03
2023-02-08T04:54:41.078Z,33.47
2023-02-08T04:57:13.937Z,34.60
2023-02-08T04:59:44.601Z,33.87
2023-02-08T05:02:13.580Z,39.07
2023-02-08T05:04:43.399Z,53.03
2023-02-08T05:07:12.163Z,47.27
2023-02-08T05:09:40.967Z,50.07
2023-02-08T05:12:10.071Z,59.03
2023-02-08T05:14:40.690Z,34.80
2023-02-08T05:17:11.161Z,28.43
2023-02-08T05:19:40.063Z,32.73
2023-02-08T05:22:09.108Z,26.60
2023-02-08T05:24:37.815Z,28.67
2023-02-08T05:27:06.614Z,29.93
2023-02-08T05:29:35.926Z,29.10
2023-02-08T05:32:05.284Z,29.43
2023-02-08T05:34:35.493Z,87.57
2023-02-08T05:37:06.409Z,154.60
2023-02-08T05:39:35.604Z,154.63
2023-02-08T05:42:05.155Z,67.40
2023-02-08T05:44:34.568Z,31.00
2023-02-08T05:47:04.102Z,32.67
2023-02-08T05:49:34.373Z,30.20
2023-02-08T05:52:03.239Z,30.03
2023-02-08T05:54:31.944Z,32.93
2023-02-08T05:57:00.801Z,35.67
2023-02-08T05:59:29.983Z,31.53
2023-02-08T06:01:58.730Z,33.50
2023-02-08T06:05:17.256Z,26.60
2023-02-08T06:07:58.342Z,34.27
2023-02-08T06:10:32.588Z,37.50
2023-02-08T06:13:03.573Z,43.13
2023-02-08T06:15:32.649Z,42.37
2023-02-08T06:18:02.486Z,40.10
2023-02-08T06:20:32.700Z,38.57
2023-02-08T06:23:01.690Z,33.37
2023-02-08T06:25:30.469Z,28.17
2023-02-08T06:28:17.934Z,32.77
2023-02-08T06:31:35.977Z,50.97
2023-02-08T06:34:05.994Z,35.40
2023-02-08T06:36:36.248Z,35.47
2023-02-08T06:39:05.121Z,32.67
2023-02-08T06:41:48.705Z,28.80
2023-02-08T06:44:17.665Z,29.23
2023-02-08T06:46:46.630Z,26.10
2023-02-08T06:49:15.601Z,24.27
2023-02-08T06:51:45.805Z,27.80
2023-02-08T06:54:15.644Z,34.43
2023-02-08T06:56:44.491Z,30.57
2023-02-08T06:59:13.153Z,31.13
2023-02-08T07:01:41.888Z,27.47
2023-02-08T07:04:10.614Z,25.70
2023-02-08T07:06:39.300Z,26.60
2023-02-08T07:09:09.575Z,23.47
2023-02-08T07:11:38.244Z,28.00
2023-02-08T07:14:06.946Z,29.70
2023-02-08T07:16:35.665Z,25.80
2023-02-08T07:19:04.845Z,23.93
2023-02-08T07:21:33.534Z,26.20
2023-02-08T07:24:02.216Z,27.17
2023-02-08T07:26:32.238Z,27.80
2023-02-08T07:29:01.385Z,28.07
2023-02-08T07:31:30.244Z,32.07
2023-02-08T07:34:00.788Z,34.47
2023-02-08T07:36:29.429Z,33.37
2023-02-08T07:38:58.143Z,37.40
2023-02-08T07:41:26.809Z,38.90
2023-02-08T07:43:56.864Z,41.60
2023-02-08T07:46:25.600Z,38.33
2023-02-08T07:48:54.402Z,38.93
2023-02-08T07:51:23.160Z,39.37
2023-02-08T07:53:52.101Z,38.73
2023-02-08T07:56:20.891Z,40.77
2023-02-08T07:58:49.637Z,40.97
2023-02-08T08:01:22.630Z,44.10
2023-02-08T08:03:52.893Z,43.90
2023-02-08T08:06:24.005Z,43.70
2023-02-08T08:08:53.801Z,38.47
2023-02-08T08:11:23.607Z,40.57
2023-02-08T08:13:53.479Z,53.10
2023-02-08T08:16:23.698Z,45.90
2023-02-08T08:18:52.457Z,50.37
2023-02-08T08:21:21.183Z,43.53
2023-02-08T08:23:49.861Z,45.73
2023-02-08T08:26:22.446Z,47.47
2023-02-08T08:28:51.104Z,48.93
2023-02-08T08:31:23.951Z,58.27
2023-02-08T08:33:52.748Z,58.63
2023-02-08T08:36:21.492Z,55.53
2023-02-08T08:38:50.144Z,54.17
2023-02-08T08:41:19.317Z,52.83
2023-02-08T08:43:48.056Z,55.97
2023-02-08T08:46:17.914Z,53.10
2023-02-08T08:48:48.372Z,53.60
2023-02-08T08:51:17.157Z,52.90
2023-02-08T08:53:45.808Z,60.50
2023-02-08T08:56:14.470Z,64.80
2023-02-08T08:58:43.651Z,61.57
2023-02-08T09:01:14.118Z,54.43
2023-02-08T09:03:42.976Z,55.93
2023-02-08T09:06:13.068Z,55.87
2023-02-08T09:08:41.760Z,56.43
2023-02-08T09:11:13.266Z,52.83
2023-02-08T09:13:43.082Z,53.23
2023-02-08T09:16:15.447Z,53.40
2023-02-08T09:18:45.015Z,52.33
2023-02-08T09:21:18.548Z,52.20
2023-02-08T09:23:47.695Z,48.47
2023-02-08T09:26:19.606Z,55.67
2023-02-08T09:28:48.582Z,54.70
2023-02-08T09:31:23.578Z,51.30
2023-02-08T09:33:55.456Z,54.30
2023-02-08T09:36:29.807Z,54.53
2023-02-08T09:39:02.212Z,57.63
2023-02-08T09:41:54.827Z,54.73
2023-02-08T09:44:33.005Z,54.90
2023-02-08T09:47:11.840Z,53.43
2023-02-08T09:49:50.188Z,61.03
2023-02-08T09:52:26.480Z,58.33
2023-02-08T09:55:03.870Z,57.67
2023-02-08T09:57:37.471Z,54.97
2023-02-08T10:00:16.284Z,58.90
2023-02-08T10:02:48.860Z,57.23
2023-02-08T10:05:23.572Z,59.73
2023-02-08T10:07:54.856Z,55.90
2023-02-08T10:10:39.216Z,54.37
2023-02-08T10:13:40.793Z,55.30
2023-02-08T10:16:22.712Z,52.13
2023-02-08T10:19:02.553Z,57.00
2023-02-08T10:21:50.832Z,57.70
2023-02-08T10:25:18.480Z,54.13
2023-02-08T10:28:09.120Z,55.10
2023-02-08T10:30:49.648Z,56.10
2023-02-08T10:33:27.943Z,54.50
2023-02-08T10:35:58.603Z,53.77
2023-02-08T10:38:45.277Z,51.17
2023-02-08T10:41:22.842Z,52.37
2023-02-08T10:44:04.632Z,50.87
2023-02-08T10:46:41.971Z,51.20
2023-02-08T10:49:21.694Z,46.63
2023-02-08T10:51:50.694Z,50.40
2023-02-08T10:54:19.555Z,53.53
2023-02-08T10:56:57.555Z,50.87
2023-02-08T10:59:32.979Z,52.17
2023-02-08T11:02:01.725Z,49.87
2023-02-08T11:04:30.697Z,48.10
2023-02-08T11:06:59.500Z,54.97
2023-02-08T11:09:31.010Z,44.73
2023-02-08T11:12:03.475Z,49.07
2023-02-08T11:14:47.221Z,50.57
2023-02-08T11:17:29.920Z,44.00
2023-02-08T11:20:01.051Z,40.13
2023-02-08T11:22:34.482Z,40.80
2023-02-08T11:25:06.219Z,37.83
2023-02-08T11:27:45.022Z,39.07
2023-02-08T11:30:25.162Z,41.47
2023-02-08T11:33:23.319Z,39.30
2023-02-08T11:36:06.524Z,38.17
2023-02-08T11:38:37.975Z,39.03
2023-02-08T11:41:19.098Z,32.77
2023-02-08T11:44:02.887Z,33.40
2023-02-08T11:46:37.428Z,35.23
2023-02-08T11:49:06.476Z,36.43
2023-02-08T11:51:40.213Z,34.10
2023-02-08T11:54:34.484Z,30.17
2023-02-08T11:57:12.153Z,33.33
2023-02-08T11:59:40.924Z,33.80
2023-02-08T12:02:32.471Z,33.50
2023-02-08T12:05:01.588Z,30.80
2023-02-08T12:07:58.159Z,32.13
2023-02-08T12:10:47.585Z,32.27
2023-02-08T12:13:56.708Z,31.90
2023-02-08T12:16:52.408Z,33.27
2023-02-08T12:20:15.883Z,34.27
2023-02-08T12:22:57.058Z,32.10
2023-02-08T12:25:39.529Z,30.07
2023-02-08T12:28:20.365Z,33.73
2023-02-08T12:31:04.500Z,28.33
2023-02-08T12:33:51.485Z,29.40
2023-02-08T12:36:38.684Z,30.37
2023-02-08T12:39:57.384Z,32.60
2023-02-08T12:42:49.355Z,32.87
2023-02-08T12:46:00.631Z,32.53
2023-02-08T12:48:56.534Z,30.83
2023-02-08T12:51:42.405Z,28.33
2023-02-08T12:54:15.427Z,29.87
2023-02-08T12:57:01.614Z,31.80
2023-02-08T12:59:40.193Z,31.67
2023-02-08T13:02:20.562Z,32.17
2023-02-08T13:04:55.131Z,32.67
2023-02-08T13:07:32.858Z,31.63
2023-02-08T13:10:13.358Z,32.80
2023-02-08T13:12:53.305Z,33.80
2023-02-08T13:15:31.020Z,31.33
2023-02-08T13:18:06.895Z,28.70
2023-02-08T13:20:44.818Z,31.27
2023-02-08T13:23:27.275Z,30.27
2023-02-08T13:26:02.067Z,30.67
2023-02-08T13:28:31.183Z,30.03
2023-02-08T13:31:08.738Z,31.37
2023-02-08T13:34:00.792Z,30.87
2023-02-08T13:36:36.007Z,30.80
2023-02-08T13:39:24.126Z,28.10
2023-02-08T13:41:56.707Z,33.43
2023-02-08T13:44:33.975Z,28.97
2023-02-08T13:47:04.412Z,31.87
2023-02-08T13:50:00.974Z,30.70
2023-02-08T13:52:51.084Z,27.97
2023-02-08T13:55:57.404Z,27.13
2023-02-08T13:59:06.890Z,28.67
2023-02-08T14:01:37.862Z,29.13
2023-02-08T14:04:35.146Z,31.23
2023-02-08T14:07:32.943Z,30.77
2023-02-08T14:10:32.014Z,31.37
2023-02-08T14:13:09.697Z,34.33
2023-02-08T14:15:41.098Z,30.63
2023-02-08T14:18:28.299Z,30.60
2023-02-08T14:21:04.537Z,31.63
2023-02-08T14:23:40.216Z,32.60
2023-02-08T14:26:24.222Z,28.50
2023-02-08T14:29:00.262Z,33.33
2023-02-08T14:31:43.526Z,30.30
2023-02-08T14:34:34.885Z,26.53
2023-02-08T14:37:27.676Z,26.83
2023-02-08T14:40:48.684Z,26.23
2023-02-08T14:43:34.386Z,24.77
2023-02-08T14:46:46.220Z,22.43
2023-02-08T14:49:19.270Z,24.07
2023-02-08T14:51:56.275Z,26.77
2023-02-08T14:54:33.880Z,24.57
2023-02-08T14:57:14.968Z,26.57
2023-02-08T14:59:45.461Z,26.17
2023-02-08T15:02:23.509Z,26.20
2023-02-08T15:04:52.624Z,23.60
2023-02-08T15:07:36.357Z,24.27
2023-02-08T15:10:07.750Z,22.87
2023-02-08T15:12:41.195Z,28.03
2023-02-08T15:15:27.487Z,23.13
2023-02-08T15:18:02.363Z,23.77
2023-02-08T15:20:37.792Z,23.30
2023-02-08T15:23:20.578Z,23.27
2023-02-08T15:25:59.049Z,22.50
2023-02-08T15:28:30.933Z,28.63
2023-02-08T15:31:06.004Z,27.40
2023-02-08T15:34:03.363Z,24.97
2023-02-08T15:36:35.454Z,30.53
2023-02-08T15:39:12.726Z,36.87
2023-02-08T15:41:41.497Z,29.60
2023-02-08T15:44:20.150Z,29.20
2023-02-08T15:49:28.024Z,29.17
2023-02-08T15:51:58.172Z,24.53
2023-02-08T15:54:27.707Z,26.63
2023-02-08T15:57:01.008Z,22.07
2023-02-08T15:59:36.404Z,27.30
2023-02-08T16:02:23.018Z,29.03
2023-02-08T16:04:53.449Z,31.57
2023-02-08T16:07:29.630Z,27.00
2023-02-08T16:09:59.970Z,25.60
2023-02-08T16:12:31.434Z,27.60
2023-02-08T16:15:00.181Z,28.83
2023-02-08T16:17:43.154Z,29.03
2023-02-08T16:20:33.349Z,27.60
2023-02-08T16:23:05.062Z,29.67
2023-02-08T16:25:44.229Z,28.97
2023-02-08T16:28:29.134Z,31.83
2023-02-08T16:31:01.522Z,31.17
2023-02-08T16:33:32.503Z,34.30
2023-02-08T16:36:02.903Z,31.53
2023-02-08T16:38:34.949Z,27.13
2023-02-08T16:41:13.203Z,32.20
2023-02-08T16:43:44.944Z,34.40
2023-02-08T16:46:26.844Z,34.80
2023-02-08T16:48:58.069Z,33.50
2023-02-08T16:51:31.770Z,36.97
2023-02-08T17:01:58.523Z,37.17
2023-02-08T17:04:29.331Z,35.90
2023-02-08T17:06:59.477Z,40.50
2023-02-08T17:09:28.188Z,34.87
2023-02-08T17:11:56.935Z,34.53
2023-02-08T17:14:25.616Z,41.63
2023-02-08T17:16:54.328Z,41.33
2023-02-08T17:19:25.252Z,33.27
2023-02-08T17:21:55.058Z,39.10
2023-02-08T17:24:24.170Z,44.10
2023-02-08T17:26:52.852Z,36.20
2023-02-08T17:29:21.630Z,37.00
2023-02-08T17:31:50.825Z,38.13
2023-02-08T17:34:19.681Z,38.63
2023-02-08T17:36:49.937Z,35.13
2023-02-08T17:39:20.895Z,43.13
2023-02-08T17:41:49.934Z,42.93
2023-02-08T17:44:19.173Z,40.70
2023-02-08T17:46:52.771Z,38.90
2023-02-08T17:49:22.426Z,41.30
2023-02-08T17:51:52.624Z,39.23
2023-02-08T17:54:21.793Z,38.97
2023-02-08T17:56:56.662Z,43.63
2023-02-08T17:59:25.888Z,40.07
2023-02-08T18:01:55.405Z,39.47
2023-02-08T18:04:26.646Z,41.77
2023-02-08T18:06:57.434Z,39.77
2023-02-08T18:09:26.494Z,41.50
2023-02-08T18:11:55.239Z,41.10
2023-02-08T18:14:24.664Z,40.40
2023-02-08T18:16:53.879Z,37.63
2023-02-08T18:19:24.655Z,40.07
2023-02-08T18:21:53.771Z,39.70
2023-02-08T18:24:24.179Z,44.20
2023-02-08T18:26:53.569Z,46.03
2023-02-08T18:29:25.811Z,46.90
2023-02-08T18:31:54.841Z,49.27
2023-02-08T18:34:24.107Z,51.83
2023-02-08T18:36:54.276Z,49.23
2023-02-08T18:39:24.932Z,49.37
2023-02-08T18:41:55.577Z,49.83
2023-02-08T18:44:28.553Z,53.67
2023-02-08T18:46:58.722Z,49.40
2023-02-08T18:49:30.699Z,44.27
2023-02-08T18:52:09.117Z,48.50
2023-02-08T18:54:41.571Z,54.00
2023-02-08T18:57:11.507Z,51.20
2023-02-08T18:59:41.182Z,53.37
2023-02-08T19:02:26.486Z,51.03
2023-02-08T19:04:55.630Z,51.80
2023-02-08T19:07:24.713Z,48.80
2023-02-08T19:09:55.631Z,52.60
2023-02-08T19:12:24.617Z,60.03
2023-02-08T19:14:53.487Z,49.57
2023-02-08T19:17:22.726Z,52.23
2023-02-08T19:19:52.252Z,54.90
2023-02-08T19:22:23.359Z,50.37
2023-02-08T19:24:53.594Z,46.40
2023-02-08T19:27:24.209Z,48.33
2023-02-08T19:29:56.473Z,46.73
2023-02-08T19:32:25.860Z,42.70
2023-02-08T19:34:58.550Z,44.13
2023-02-08T19:37:28.103Z,42.70
2023-02-08T19:39:57.738Z,44.20
2023-02-08T19:42:30.437Z,41.00
2023-02-08T19:45:00.962Z,41.07
2023-02-08T19:47:50.263Z,44.80
2023-02-08T19:50:21.977Z,41.10
2023-02-08T19:52:51.804Z,40.97
2023-02-08T19:55:23.723Z,44.03
2023-02-08T19:57:54.595Z,38.53
2023-02-08T20:00:43.368Z,42.87
2023-02-08T20:03:21.442Z,45.97
2023-02-08T20:05:57.054Z,39.03
2023-02-08T20:08:27.474Z,41.93
2023-02-08T20:10:57.406Z,46.43
2023-02-08T20:13:28.246Z,44.33
2023-02-08T20:16:01.153Z,45.23
2023-02-08T20:18:31.580Z,40.80
2023-02-08T20:21:06.130Z,42.83
2023-02-08T20:23:35.729Z,39.10
2023-02-08T20:26:10.246Z,46.30
2023-02-08T20:28:46.982Z,45.30
2023-02-08T20:31:19.680Z,44.00
2023-02-08T20:33:50.314Z,45.30
2023-02-08T20:36:25.929Z,44.63
2023-02-08T20:38:58.373Z,41.60
2023-02-08T20:41:33.286Z,42.80
2023-02-08T20:44:04.107Z,45.73
2023-02-08T20:46:36.956Z,42.43
2023-02-08T20:49:08.363Z,42.83
2023-02-08T20:51:37.563Z,43.17
2023-02-08T20:54:06.681Z,48.37
2023-02-08T20:56:38.230Z,48.33
2023-02-08T20:59:13.758Z,46.63
2023-02-08T21:01:43.997Z,47.03
2023-02-08T21:04:13.213Z,59.83
2023-02-08T21:06:46.063Z,63.37
2023-02-08T21:09:20.337Z,62.23
2023-02-08T21:11:50.320Z,72.63
2023-02-08T21:14:23.720Z,62.93
2023-02-08T21:16:56.072Z,67.60
2023-02-08T21:19:26.287Z,61.23
2023-02-08T21:21:58.124Z,54.20
2023-02-08T21:24:28.756Z,57.40
2023-02-08T21:26:58.491Z,45.43
2023-02-08T21:29:29.667Z,43.73
2023-02-08T21:31:58.813Z,44.60
2023-02-08T21:34:27.887Z,50.17
2023-02-08T21:36:56.650Z,46.33
2023-02-08T21:39:25.500Z,51.80
2023-02-08T21:41:55.528Z,46.67
2023-02-08T21:44:24.527Z,50.03
2023-02-08T21:46:54.672Z,50.40
2023-02-08T21:49:40.928Z,47.53
2023-02-08T21:52:28.232Z,49.63
2023-02-08T21:54:57.017Z,50.30
2023-02-08T21:57:28.901Z,52.27
2023-02-08T22:00:01.354Z,50.23
2023-02-08T22:02:32.080Z,47.63
2023-02-08T22:05:03.119Z,50.07
2023-02-08T22:07:42.288Z,53.07
2023-02-08T22:10:14.431Z,47.30
2023-02-08T22:12:43.210Z,45.43
2023-02-08T22:15:14.983Z,49.17
2023-02-08T22:17:45.291Z,47.23
2023-02-08T22:20:15.884Z,49.03
2023-02-08T22:22:45.730Z,49.43
2023-02-08T22:25:14.935Z,48.53
2023-02-08T22:27:43.635Z,48.33
2023-02-08T22:30:16.668Z,52.20
2023-02-08T22:32:50.320Z,50.67
2023-02-08T22:35:21.249Z,45.03
2023-02-08T22:37:50.132Z,49.27
2023-02-08T22:40:19.047Z,48.67
2023-02-08T22:42:47.881Z,45.53
2023-02-08T22:45:16.587Z,45.23
2023-02-08T22:47:46.156Z,45.37
2023-02-08T22:50:16.723Z,46.60
2023-02-08T22:52:45.422Z,38.77
2023-02-08T22:55:14.090Z,36.43
2023-02-08T22:57:43.639Z,35.43
2023-02-08T23:00:17.137Z,33.63
2023-02-08T23:02:46.025Z,36.27
2023-02-08T23:05:16.112Z,32.63
2023-02-08T23:07:44.842Z,31.00
2023-02-08T23:10:14.051Z,25.83
2023-02-08T23:12:42.709Z,20.23
2023-02-08T23:15:12.811Z,17.97
2023-02-08T23:17:41.537Z,17.20
2023-02-08T23:20:11.639Z,16.43
2023-02-08T23:22:42.308Z,16.07
2023-02-08T23:25:11.348Z,14.27
2023-02-08T23:27:40.127Z,14.23
2023-02-08T23:30:10.451Z,9.67
2023-02-08T23:32:39.363Z,13.40
2023-02-08T23:35:10.676Z,9.30
2023-02-08T23:37:41.037Z,10.50
2023-02-08T23:40:11.875Z,11.67
2023-02-08T23:42:40.656Z,10.33
2023-02-08T23:45:10.813Z,10.30
2023-02-08T23:47:40.401Z,10.50
2023-02-08T23:50:11.020Z,11.03
2023-02-08T23:52:41.057Z,10.83
2023-02-08T23:55:10.180Z,11.83
2023-02-08T23:57:39.800Z,10.27
